Time;durP1;ratioP1;P1;durP2;ratioP2;P2;SDS_P1;SDS_P2;PMS_P1;PMS_P2;Temp;Humidity;BMP_temperature;BMP_pressure;BME280_temperature;BME280_humidity;BME280_pressure;Samples;Min_cycle;Max_cycle;Signal;HPM_P1;HPM_P2
2024/01/22 00:01:39;;;;;;;5.20;2.40;;;;;;;17.62;46.26;101022.81;5059925;28;20186;-66
2024/01/22 00:04:07;;;;;;;14.90;3.07;;;;;;;17.64;46.46;101003.28;5067493;28;20198;-67
2024/01/22 00:06:32;;;;;;;7.03;2.87;;;;;;;17.59;47.02;100992.09;5071018;28;20435;-66
2024/01/22 00:08:58;;;;;;;17.60;3.27;;;;;;;17.58;46.25;100986.75;5078000;28;20532;-65
2024/01/22 00:11:23;;;;;;;10.07;2.53;;;;;;;17.49;46.39;100986.88;5084064;28;20177;-65
2024/01/22 00:13:49;;;;;;;5.50;2.20;;;;;;;17.52;45.92;100986.19;5091130;28;20206;-65
2024/01/22 00:16:15;;;;;;;6.63;2.53;;;;;;;17.43;46.14;100979.75;5038079;28;20251;-65
2024/01/22 00:18:40;;;;;;;6.73;2.50;;;;;;;17.46;46.82;100996.16;5052778;28;20197;-65
2024/01/22 00:21:06;;;;;;;4.53;2.30;;;;;;;17.47;46.37;100988.44;5030127;28;20928;-66
2024/01/22 00:23:31;;;;;;;5.90;2.00;;;;;;;17.46;46.61;100998.19;5070763;28;20277;-64
2024/01/22 00:25:57;;;;;;;3.90;2.10;;;;;;;17.40;46.74;100996.75;5083494;28;20251;-64
2024/01/22 00:28:22;;;;;;;6.07;2.50;;;;;;;17.40;46.62;100986.16;5072957;28;20202;-64
2024/01/22 00:30:47;;;;;;;9.20;2.37;;;;;;;17.34;46.93;100976.16;5087264;28;20181;-65
2024/01/22 00:33:13;;;;;;;5.27;2.57;;;;;;;17.37;47.17;100969.75;5049606;28;20175;-64
2024/01/22 00:35:38;;;;;;;8.00;2.53;;;;;;;17.47;46.65;100971.28;5032432;28;20209;-65
2024/01/22 00:38:04;;;;;;;4.10;2.37;;;;;;;17.44;46.64;100961.44;5043114;28;20181;-64
2024/01/22 00:40:29;;;;;;;6.80;2.53;;;;;;;17.44;46.70;100952.88;5048542;28;20197;-65
2024/01/22 00:42:55;;;;;;;7.60;2.83;;;;;;;17.44;47.42;100957.72;5068742;28;20181;-64
2024/01/22 00:45:20;;;;;;;7.93;2.40;;;;;;;17.43;46.57;100954.06;5040054;28;20210;-64
2024/01/22 00:47:45;;;;;;;4.90;2.30;;;;;;;17.47;46.88;100962.72;5049619;28;20265;-66
2024/01/22 00:50:11;;;;;;;7.60;2.83;;;;;;;17.43;46.80;100945.50;5052069;28;20198;-64
2024/01/22 00:52:36;;;;;;;5.13;2.77;;;;;;;17.43;47.44;100956.91;5033245;28;20274;-64
2024/01/22 00:55:02;;;;;;;4.80;2.50;;;;;;;17.41;47.15;100950.72;5039719;28;20183;-64
2024/01/22 00:57:28;;;;;;;5.57;2.13;;;;;;;17.40;46.94;100949.06;5053277;28;20586;-65
2024/01/22 00:59:53;;;;;;;6.77;2.30;;;;;;;17.43;47.21;100956.91;5082138;28;20198;-64
2024/01/22 01:02:18;;;;;;;4.20;2.37;;;;;;;17.41;47.57;100939.28;5069500;28;20182;-64
2024/01/22 01:04:44;;;;;;;6.33;2.30;;;;;;;17.42;47.36;100946.69;5053974;28;20174;-64
2024/01/22 01:07:09;;;;;;;5.43;2.40;;;;;;;17.38;47.32;100945.72;5051691;28;20175;-64
2024/01/22 01:09:35;;;;;;;4.70;2.20;;;;;;;17.35;47.46;100949.25;5051371;28;20183;-64
2024/01/22 01:12:00;;;;;;;4.93;2.20;;;;;;;17.37;47.03;100946.06;5033732;28;20166;-64
2024/01/22 01:14:26;;;;;;;5.40;2.30;;;;;;;17.37;47.41;100941.19;5047364;28;20685;-64
2024/01/22 01:16:51;;;;;;;5.23;2.10;;;;;;;17.34;47.37;100939.03;5038197;28;20170;-64
2024/01/22 01:19:17;;;;;;;5.60;2.10;;;;;;;17.37;47.07;100932.63;5054680;28;20185;-64
2024/01/22 01:21:42;;;;;;;4.30;2.20;;;;;;;17.35;47.41;100929.28;5089355;28;20179;-64
2024/01/22 01:24:08;;;;;;;3.50;2.00;;;;;;;17.34;47.03;100921.91;5086214;28;20205;-64
2024/01/22 01:26:44;;;;;;;6.10;3.13;;;;;;;17.34;47.35;100913.34;5071111;28;20218;-64
2024/01/22 01:29:09;;;;;;;4.77;2.30;;;;;;;17.33;47.76;100917.41;5056082;28;20202;-64
2024/01/22 01:31:35;;;;;;;5.97;2.07;;;;;;;17.35;47.59;100914.19;5052045;28;20799;-64
2024/01/22 01:34:00;;;;;;;5.50;2.40;;;;;;;17.33;47.65;100925.97;5052259;28;20547;-64
2024/01/22 01:36:26;;;;;;;6.57;2.43;;;;;;;17.36;47.17;100918.72;5050261;28;20183;-64
2024/01/22 01:38:51;;;;;;;4.27;2.07;;;;;;;17.31;47.62;100914.06;5072986;28;20195;-64
2024/01/22 01:41:17;;;;;;;3.67;1.90;;;;;;;17.32;47.50;100921.47;5033446;28;20186;-64
2024/01/22 01:43:42;;;;;;;4.77;2.33;;;;;;;17.35;47.47;100920.72;5029605;28;20182;-64
2024/01/22 01:46:08;;;;;;;4.70;2.33;;;;;;;17.31;47.69;100919.78;5069417;28;20170;-65
2024/01/22 01:48:33;;;;;;;5.00;2.30;;;;;;;17.32;47.71;100921.47;5087641;28;20263;-65
2024/01/22 01:51:00;;;;;;;5.83;2.37;;;;;;;17.32;47.80;100918.59;5055339;28;20189;-65
2024/01/22 01:53:26;;;;;;;4.10;2.37;;;;;;;17.31;47.54;100933.22;5043281;28;20198;-64
2024/01/22 01:55:51;;;;;;;5.70;2.00;;;;;;;17.36;47.09;100924.41;5062552;28;20433;-64
2024/01/22 01:58:18;;;;;;;3.80;2.30;;;;;;;17.34;47.13;100929.63;5067050;28;20248;-64
2024/01/22 02:00:43;;;;;;;5.10;2.10;;;;;;;17.31;47.33;100931.19;5054017;28;20179;-64
2024/01/22 02:03:09;;;;;;;3.23;1.90;;;;;;;17.37;47.11;100920.38;5037821;28;20429;-64
2024/01/22 02:05:35;;;;;;;4.70;1.90;;;;;;;17.31;47.39;100919.78;5054430;28;20289;-64
2024/01/22 02:08:00;;;;;;;3.53;1.90;;;;;;;17.37;46.76;100923.22;5064172;28;20521;-64
2024/01/22 02:10:26;;;;;;;5.13;2.10;;;;;;;17.37;47.08;100918.38;5073807;28;20224;-64
2024/01/22 02:12:51;;;;;;;4.23;2.20;;;;;;;17.35;47.21;100915.00;5091787;28;20265;-65
2024/01/22 02:15:18;;;;;;;5.30;2.17;;;;;;;17.39;46.85;100918.00;5089574;28;20217;-64
2024/01/22 02:17:43;;;;;;;5.40;2.20;;;;;;;17.36;47.33;100913.00;5057672;28;20248;-65
2024/01/22 02:20:09;;;;;;;7.07;2.10;;;;;;;17.34;47.39;100907.66;5057483;28;20481;-64
2024/01/22 02:22:34;;;;;;;3.97;2.07;;;;;;;17.28;47.54;100905.38;5056460;28;20178;-64
2024/01/22 02:25:00;;;;;;;4.70;2.30;;;;;;;17.30;47.50;100901.00;5054798;28;20641;-64
2024/01/22 02:27:25;;;;;;;4.77;2.17;;;;;;;17.32;47.38;100907.19;5055361;28;20267;-64
2024/01/22 02:29:51;;;;;;;4.20;2.20;;;;;;;17.28;47.52;100903.38;5060164;28;21020;-64
2024/01/22 02:32:16;;;;;;;4.43;2.00;;;;;;;17.31;47.60;100898.97;5062796;28;20932;-65
2024/01/22 02:34:41;;;;;;;3.80;1.87;;;;;;;17.32;47.32;100890.06;5050438;28;20810;-65
2024/01/22 02:37:07;;;;;;;3.87;1.83;;;;;;;17.32;47.55;100883.50;5055448;28;20175;-64
2024/01/22 02:39:32;;;;;;;3.60;2.00;;;;;;;17.28;47.69;100871.16;5038448;28;20170;-64
2024/01/22 02:41:58;;;;;;;4.23;2.10;;;;;;;17.30;47.66;100875.31;5043188;28;20187;-65
2024/01/22 02:44:24;;;;;;;4.20;1.77;;;;;;;17.26;47.31;100862.94;5081891;28;20183;-64
2024/01/22 02:46:49;;;;;;;4.33;2.10;;;;;;;17.27;47.57;100861.78;5075704;28;20448;-64
2024/01/22 02:49:15;;;;;;;4.20;2.27;;;;;;;17.24;47.45;100851.06;5053347;28;20198;-64
2024/01/22 02:51:43;;;;;;;4.00;1.80;;;;;;;17.29;47.56;100847.13;5064967;28;20174;-65
2024/01/22 02:54:09;;;;;;;2.60;1.83;;;;;;;17.27;47.63;100847.50;5056825;28;20181;-64
2024/01/22 02:56:34;;;;;;;3.90;1.90;;;;;;;17.32;47.40;100827.28;5048242;28;20520;-64
2024/01/22 02:59:00;;;;;;;4.57;2.10;;;;;;;17.25;47.99;100818.47;5071464;28;20661;-64
2024/01/22 03:01:25;;;;;;;3.37;1.80;;;;;;;17.23;47.72;100825.75;5037446;28;21029;-64
2024/01/22 03:03:51;;;;;;;7.60;2.10;;;;;;;17.28;47.84;100816.94;5053676;28;20189;-64
2024/01/22 03:06:16;;;;;;;3.63;1.80;;;;;;;17.28;46.96;100822.63;5073852;28;20832;-64
2024/01/22 03:08:42;;;;;;;3.20;2.00;;;;;;;17.25;47.47;100809.91;5054431;28;20233;-64
2024/01/22 03:11:08;;;;;;;3.67;1.77;;;;;;;17.28;47.29;100794.09;5056873;28;20178;-64
2024/01/22 03:13:34;;;;;;;3.10;1.57;;;;;;;17.27;47.41;100790.44;5054471;28;20206;-65
2024/01/22 03:15:59;;;;;;;4.47;2.03;;;;;;;17.26;47.48;100790.78;5051510;28;20436;-64
2024/01/22 03:18:25;;;;;;;4.30;2.30;;;;;;;17.31;47.38;100801.94;5072666;28;20265;-63
2024/01/22 03:20:50;;;;;;;2.87;1.70;;;;;;;17.28;47.59;100792.09;5056025;28;20239;-64
2024/01/22 03:23:16;;;;;;;4.60;2.03;;;;;;;17.29;47.58;100790.06;5034455;28;20194;-64
2024/01/22 03:25:41;;;;;;;3.90;1.93;;;;;;;17.30;47.67;100781.13;5087416;28;20190;-64
2024/01/22 03:28:06;;;;;;;4.93;1.57;;;;;;;17.27;47.85;100792.44;5054857;28;20201;-64
2024/01/22 03:30:32;;;;;;;2.70;1.93;;;;;;;17.29;47.39;100796.59;5070425;28;20178;-64
2024/01/22 03:32:57;;;;;;;3.90;1.80;;;;;;;17.30;47.33;100786.84;5051395;28;20182;-66
2024/01/22 03:35:23;;;;;;;3.97;1.70;;;;;;;17.32;47.44;100784.47;5072038;28;20231;-64
2024/01/22 03:37:48;;;;;;;6.63;2.90;;;;;;;17.31;47.19;100777.09;5071766;28;20231;-64
2024/01/22 03:40:14;;;;;;;5.20;2.00;;;;;;;17.34;46.96;100764.97;5052386;28;20182;-65
2024/01/22 03:42:40;;;;;;;4.30;2.00;;;;;;;17.31;47.19;100753.44;5036097;28;20262;-64
2024/01/22 03:45:06;;;;;;;3.20;1.87;;;;;;;17.29;47.58;100768.06;5070066;28;20421;-64
2024/01/22 03:47:31;;;;;;;3.60;2.10;;;;;;;17.31;47.38;100764.84;5037971;28;20229;-64
2024/01/22 03:49:57;;;;;;;7.30;1.80;;;;;;;17.32;47.72;100763.66;5063349;28;20186;-63
2024/01/22 03:52:22;;;;;;;3.50;1.90;;;;;;;17.28;47.33;100765.56;5072178;28;20159;-64
2024/01/22 03:54:48;;;;;;;4.90;2.03;;;;;;;17.30;47.10;100764.00;5070305;28;20262;-63
2024/01/22 03:57:13;;;;;;;3.70;2.20;;;;;;;17.25;47.56;100750.00;5055106;28;20255;-64
2024/01/22 03:59:38;;;;;;;4.27;2.07;;;;;;;17.28;47.40;100752.16;5072211;28;20624;-64
2024/01/22 04:02:04;;;;;;;3.20;1.60;;;;;;;17.33;47.57;100769.00;5042342;28;20183;-65
2024/01/22 04:04:29;;;;;;;4.67;2.00;;;;;;;17.31;47.54;100757.09;5052535;28;20232;-64
2024/01/22 04:06:55;;;;;;;3.50;1.90;;;;;;;17.32;47.26;100757.94;5036057;28;20179;-64
2024/01/22 04:09:20;;;;;;;4.60;1.53;;;;;;;17.28;47.32;100749.28;5035888;28;20214;-65
2024/01/22 04:11:46;;;;;;;3.33;1.80;;;;;;;17.33;47.31;100740.47;5054830;28;20191;-65
2024/01/22 04:14:11;;;;;;;2.80;1.60;;;;;;;17.29;47.62;100758.66;5021179;28;20241;-64
2024/01/22 04:16:37;;;;;;;2.73;1.70;;;;;;;17.26;47.63;100756.56;5029021;28;20193;-63
2024/01/22 04:19:02;;;;;;;3.40;1.90;;;;;;;17.28;47.72;100757.84;5035324;28;20177;-64
2024/01/22 04:21:29;;;;;;;3.40;1.67;;;;;;;17.30;47.90;100746.88;5035318;28;20178;-65
2024/01/22 04:23:54;;;;;;;4.20;1.70;;;;;;;17.27;47.65;100744.78;5050798;28;20703;-64
2024/01/22 04:26:20;;;;;;;3.33;1.90;;;;;;;17.26;47.45;100751.66;5036453;28;20564;-64
2024/01/22 04:28:45;;;;;;;3.80;1.40;;;;;;;17.23;47.79;100758.09;5017156;28;20218;-65
2024/01/22 04:31:12;;;;;;;3.03;1.97;;;;;;;17.25;47.69;100766.31;5072775;28;20209;-64
2024/01/22 04:33:38;;;;;;;3.93;1.70;;;;;;;17.22;47.95;100762.16;5087376;28;20182;-64
2024/01/22 04:36:04;;;;;;;2.60;1.47;;;;;;;17.25;47.59;100764.25;5089262;28;20463;-64
2024/01/22 04:38:30;;;;;;;2.60;1.63;;;;;;;17.24;47.79;100761.75;5072042;28;20166;-64
2024/01/22 04:40:56;;;;;;;3.63;1.77;;;;;;;17.27;47.60;100753.34;5069851;28;20197;-64
2024/01/22 04:43:21;;;;;;;3.90;2.33;;;;;;;17.26;47.88;100748.81;5052987;28;20421;-64
2024/01/22 04:45:50;;;;;;;3.03;1.53;;;;;;;17.24;47.64;100748.34;5051601;28;20218;-63
2024/01/22 04:48:15;;;;;;;3.77;1.60;;;;;;;17.24;47.98;100739.78;5054883;28;20548;-64
2024/01/22 04:50:41;;;;;;;2.40;1.60;;;;;;;17.24;48.00;100736.09;5070244;28;20439;-63
2024/01/22 04:53:06;;;;;;;3.47;1.90;;;;;;;17.24;47.85;100742.63;5044372;28;20227;-64
2024/01/22 04:55:31;;;;;;;3.07;1.67;;;;;;;17.23;48.24;100743.84;5044309;28;20198;-64
2024/01/22 04:57:57;;;;;;;3.10;1.70;;;;;;;17.27;47.80;100735.38;5054851;28;20171;-66
2024/01/22 05:00:22;;;;;;;2.80;1.67;;;;;;;17.28;47.48;100726.47;5065270;28;20179;-63
2024/01/22 05:02:48;;;;;;;2.50;1.67;;;;;;;17.26;47.77;100722.31;5084649;28;20705;-63
2024/01/22 05:05:13;;;;;;;3.83;1.60;;;;;;;17.29;47.95;100721.56;5038910;28;20174;-64
2024/01/22 05:07:39;;;;;;;3.03;1.80;;;;;;;17.29;47.61;100722.41;5054240;28;20206;-64
2024/01/22 05:10:06;;;;;;;2.53;1.60;;;;;;;17.29;47.54;100707.28;5061433;28;20186;-63
2024/01/22 05:12:31;;;;;;;2.83;1.33;;;;;;;17.33;47.60;100699.69;5048439;28;20201;-66
2024/01/22 05:14:57;;;;;;;3.20;1.73;;;;;;;17.33;47.81;100697.66;5050291;28;20913;-64
2024/01/22 05:17:23;;;;;;;5.80;1.60;;;;;;;17.33;47.39;100705.38;5053122;28;20191;-64
2024/01/22 05:19:49;;;;;;;2.10;1.30;;;;;;;17.27;47.65;100699.13;5033765;28;20175;-65
2024/01/22 05:22:14;;;;;;;3.10;1.60;;;;;;;17.31;47.39;100685.78;5032722;28;20417;-63
2024/01/22 05:24:40;;;;;;;2.90;1.50;;;;;;;17.29;47.57;100688.16;5050797;28;20167;-64
2024/01/22 05:27:07;;;;;;;3.37;1.80;;;;;;;17.34;47.58;100695.63;5034791;28;20226;-64
2024/01/22 05:29:32;;;;;;;2.43;1.30;;;;;;;17.33;47.60;100686.25;5073049;28;20225;-65
2024/01/22 05:31:58;;;;;;;3.20;1.53;;;;;;;17.33;47.42;100677.69;5055895;28;20506;-66
2024/01/22 05:34:24;;;;;;;2.63;1.67;;;;;;;17.28;48.11;100668.56;5064858;28;20175;-65
2024/01/22 05:36:49;;;;;;;2.70;1.60;;;;;;;17.26;47.94;100662.38;5039982;28;20179;-64
2024/01/22 05:39:15;;;;;;;2.73;1.40;;;;;;;17.24;47.93;100650.50;5038468;28;20420;-63
2024/01/22 05:41:41;;;;;;;5.37;2.00;;;;;;;17.23;47.77;100660.25;5050168;28;20197;-63
2024/01/22 05:44:07;;;;;;;3.60;1.70;;;;;;;17.22;48.00;100653.72;5041428;28;20181;-63
2024/01/22 05:46:33;;;;;;;3.93;1.90;;;;;;;17.27;47.71;100656.31;5057787;28;20428;-64
2024/01/22 05:48:58;;;;;;;2.63;1.50;;;;;;;17.30;47.60;100664.13;5057581;28;20263;-63
2024/01/22 05:51:23;;;;;;;3.30;1.70;;;;;;;17.27;47.49;100653.47;5046051;28;20986;-64
2024/01/22 05:53:49;;;;;;;2.70;1.60;;;;;;;17.23;48.00;100658.25;5054650;28;20175;-64
2024/01/22 05:56:22;;;;;;;2.20;1.30;;;;;;;17.28;47.88;100657.97;5069215;28;20228;-63
2024/01/22 05:58:48;;;;;;;2.97;1.43;;;;;;;17.33;47.28;100656.88;5072624;28;20174;-64
2024/01/22 06:01:24;;;;;;;2.83;1.43;;;;;;;17.28;47.49;100643.72;5044250;28;20503;-64
2024/01/22 06:03:50;;;;;;;3.13;1.30;;;;;;;17.27;47.35;100647.75;5067220;28;20420;-64
2024/01/22 06:06:16;;;;;;;3.57;1.33;;;;;;;17.31;47.54;100628.69;5037907;28;20413;-64
2024/01/22 06:08:45;;;;;;;4.17;1.60;;;;;;;17.27;47.62;100613.53;5054172;28;20201;-64
2024/01/22 06:11:10;;;;;;;3.40;1.63;;;;;;;17.27;48.08;100612.69;5049436;28;20703;-64
2024/01/22 06:13:39;;;;;;;3.93;1.80;;;;;;;17.29;47.82;100610.28;5092048;28;20425;-63
2024/01/22 06:16:23;;;;;;;3.27;1.77;;;;;;;17.28;48.11;100603.75;5069536;28;20183;-65
2024/01/22 06:18:48;;;;;;;2.70;1.30;;;;;;;17.32;47.81;100599.00;5069458;28;20412;-64
2024/01/22 06:21:14;;;;;;;2.27;1.50;;;;;;;17.35;47.50;100597.44;5071727;28;20467;-63
2024/01/22 06:23:41;;;;;;;4.33;1.50;;;;;;;17.31;47.81;100594.44;5068062;28;20178;-65
2024/01/22 06:26:06;;;;;;;3.20;1.50;;;;;;;17.29;47.86;100596.00;5086668;28;20727;-64
2024/01/22 06:28:31;;;;;;;3.07;1.77;;;;;;;17.33;47.67;100599.81;5051081;28;20469;-64
2024/01/22 06:30:57;;;;;;;2.00;1.13;;;;;;;17.29;47.83;100599.72;5057974;28;20179;-63
2024/01/22 06:33:23;;;;;;;3.47;1.70;;;;;;;17.35;48.06;100592.53;5057161;28;20170;-63
2024/01/22 06:35:48;;;;;;;3.20;1.23;;;;;;;17.33;47.70;100596.94;5085546;28;20194;-64
2024/01/22 06:38:17;;;;;;;3.70;1.77;;;;;;;17.31;47.63;100597.31;5037036;28;20198;-64
2024/01/22 06:40:44;;;;;;;2.90;1.37;;;;;;;17.34;47.41;100593.72;5040216;28;20221;-63
2024/01/22 06:43:09;;;;;;;2.57;1.30;;;;;;;17.35;47.73;100586.81;5040037;28;20433;-66
2024/01/22 06:45:35;;;;;;;2.97;1.63;;;;;;;17.32;48.19;100607.56;5063091;28;20439;-64
2024/01/22 06:48:01;;;;;;;3.90;1.73;;;;;;;17.32;47.59;100593.28;5073921;28;20198;-63
2024/01/22 06:50:27;;;;;;;2.97;1.40;;;;;;;17.34;47.37;100585.19;5056307;28;20733;-63
2024/01/22 06:52:52;;;;;;;2.20;1.23;;;;;;;17.34;47.25;100585.19;5053110;28;20439;-63
2024/01/22 06:55:18;;;;;;;2.97;1.50;;;;;;;17.37;47.42;100586.47;5044283;28;20193;-63
2024/01/22 06:57:44;;;;;;;3.63;1.67;;;;;;;17.38;47.33;100585.25;5070682;28;20197;-64
2024/01/22 07:00:11;;;;;;;2.80;1.27;;;;;;;17.35;47.59;100589.69;5052611;28;20417;-63
2024/01/22 07:02:41;;;;;;;3.03;1.53;;;;;;;17.40;47.37;100580.06;5071479;28;20166;-64
2024/01/22 07:05:07;;;;;;;2.40;1.23;;;;;;;17.37;47.66;100589.31;5052692;28;20536;-63
2024/01/22 07:07:33;;;;;;;2.27;1.17;;;;;;;17.36;47.14;100585.63;5090010;28;20424;-63
2024/01/22 07:09:58;;;;;;;3.13;1.37;;;;;;;17.43;47.26;100580.16;5051746;28;20768;-64
2024/01/22 07:12:24;;;;;;;3.23;1.33;;;;;;;17.34;47.52;100565.19;5034347;28;20615;-64
2024/01/22 07:14:49;;;;;;;3.80;1.60;;;;;;;17.33;47.40;100557.84;5042950;28;20677;-63
2024/01/22 07:17:19;;;;;;;2.53;1.50;;;;;;;17.39;47.39;100553.53;5069865;28;20190;-63
2024/01/22 07:19:44;;;;;;;2.87;1.40;;;;;;;17.33;47.50;100552.13;5069517;28;20175;-64
2024/01/22 07:22:10;;;;;;;2.50;1.30;;;;;;;17.41;47.19;100544.63;5041886;28;20868;-64
2024/01/22 07:24:36;;;;;;;3.40;1.33;;;;;;;17.37;47.35;100540.81;5054813;28;20179;-64
2024/01/22 07:27:01;;;;;;;2.57;1.47;;;;;;;17.44;47.23;100541.00;5072184;28;20222;-66
2024/01/22 07:29:27;;;;;;;2.30;1.30;;;;;;;17.45;47.29;100532.09;5063269;28;20465;-63
2024/01/22 07:31:52;;;;;;;2.37;1.27;;;;;;;17.39;47.16;100538.44;5044223;28;20178;-64
2024/01/22 07:34:19;;;;;;;2.27;1.30;;;;;;;17.38;48.13;100534.75;5055864;28;20544;-65
2024/01/22 07:36:44;;;;;;;3.20;1.50;;;;;;;17.35;47.84;100535.47;5039323;28;20439;-65
2024/01/22 07:39:11;;;;;;;3.00;1.47;;;;;;;17.33;47.71;100549.28;5085730;28;20178;-65
2024/01/22 07:41:36;;;;;;;3.00;1.50;;;;;;;17.35;47.59;100540.34;5072621;28;20173;-64
2024/01/22 07:44:03;;;;;;;2.53;1.20;;;;;;;17.34;47.56;100541.53;5067916;28;20437;-64
2024/01/22 07:46:29;;;;;;;2.40;1.43;;;;;;;17.31;47.88;100537.38;5036472;28;20175;-64
2024/01/22 07:48:54;;;;;;;2.60;1.70;;;;;;;17.42;47.44;100555.69;5057608;28;20980;-63
2024/01/22 07:51:20;;;;;;;2.60;1.30;;;;;;;17.39;47.36;100544.13;5054687;28;20609;-63
2024/01/22 07:53:46;;;;;;;2.73;1.40;;;;;;;17.45;47.71;100551.25;5090905;28;20159;-65
2024/01/22 07:56:11;;;;;;;2.60;1.20;;;;;;;17.38;47.80;100537.59;5049003;28;21170;-64
2024/01/22 07:58:40;;;;;;;2.03;1.33;;;;;;;17.40;47.78;100546.63;5051798;28;20159;-64
2024/01/22 08:01:09;;;;;;;3.37;1.60;;;;;;;17.37;47.82;100535.09;5041469;28;20547;-64
2024/01/22 08:03:34;;;;;;;3.33;2.03;;;;;;;17.35;47.74;100540.34;5054495;28;20574;-63
2024/01/22 08:06:00;;;;;;;2.13;1.13;;;;;;;17.37;47.56;100540.81;5035870;28;20432;-64
2024/01/22 08:08:26;;;;;;;2.13;1.00;;;;;;;17.36;48.14;100522.03;5053469;28;20199;-64
2024/01/22 08:10:52;;;;;;;3.10;1.60;;;;;;;17.42;47.67;100530.00;5051051;28;21013;-64
2024/01/22 08:13:18;;;;;;;2.60;1.20;;;;;;;17.38;47.74;100520.47;5035162;28;20445;-64
2024/01/22 08:15:43;;;;;;;2.50;1.30;;;;;;;17.35;48.16;100520.38;5050957;28;20190;-64
2024/01/22 08:18:09;;;;;;;2.53;1.40;;;;;;;17.39;47.70;100522.16;5070780;28;20174;-64
2024/01/22 08:20:34;;;;;;;2.23;1.37;;;;;;;17.40;47.55;100523.00;5078216;28;20194;-64
2024/01/22 08:23:00;;;;;;;2.47;1.50;;;;;;;17.44;47.16;100521.88;5051158;28;20194;-63
2024/01/22 08:25:28;;;;;;;2.93;1.53;;;;;;;17.43;47.30;100523.09;5056494;28;20560;-64
2024/01/22 08:27:54;;;;;;;3.00;1.50;;;;;;;17.42;47.31;100524.28;5068695;28;20251;-64
2024/01/22 08:30:20;;;;;;;3.20;1.50;;;;;;;17.40;47.44;100535.22;5036885;28;21344;-64
2024/01/22 08:32:46;;;;;;;2.53;1.30;;;;;;;17.37;47.88;100533.09;5052771;28;20441;-64
2024/01/22 08:35:11;;;;;;;3.33;1.40;;;;;;;17.43;47.54;100536.50;5071626;28;20522;-64
2024/01/22 08:37:39;;;;;;;3.23;1.50;;;;;;;17.46;47.85;100539.44;5035859;28;20187;-64
2024/01/22 08:40:08;;;;;;;2.40;1.37;;;;;;;17.47;47.35;100528.88;5033893;28;20167;-64
2024/01/22 08:42:33;;;;;;;2.43;1.47;;;;;;;17.43;47.63;100539.38;5033393;28;20420;-64
2024/01/22 08:44:59;;;;;;;3.07;1.47;;;;;;;17.42;47.89;100544.25;5033174;28;20437;-64
2024/01/22 08:47:24;;;;;;;2.50;1.33;;;;;;;17.39;47.85;100542.13;5052482;28;20571;-64
2024/01/22 08:49:50;;;;;;;3.00;1.60;;;;;;;17.42;47.17;100547.13;5053471;28;20186;-65
2024/01/22 08:52:15;;;;;;;3.70;1.87;;;;;;;17.52;47.35;100535.16;5050705;28;20189;-64
2024/01/22 08:54:41;;;;;;;3.03;1.30;;;;;;;17.51;47.04;100535.50;5071217;28;20178;-63
2024/01/22 08:57:07;;;;;;;3.00;1.50;;;;;;;17.43;47.85;100534.50;5062394;28;20596;-66
2024/01/22 08:59:32;;;;;;;2.43;1.30;;;;;;;17.47;47.35;100521.16;5070721;28;20202;-63
2024/01/22 09:01:58;;;;;;;3.17;1.50;;;;;;;17.46;47.79;100525.19;5038358;28;20525;-63
2024/01/22 09:04:24;;;;;;;2.20;1.23;;;;;;;17.46;47.82;100538.63;5053987;28;20178;-63
2024/01/22 09:06:50;;;;;;;2.80;1.23;;;;;;;17.42;47.75;100532.84;5072583;28;20238;-63
2024/01/22 09:09:15;;;;;;;3.23;1.30;;;;;;;17.43;48.07;100540.19;5074728;28;20274;-65
2024/01/22 09:11:41;;;;;;;2.50;1.30;;;;;;;17.39;48.12;100525.00;5057928;28;20427;-64
2024/01/22 09:14:06;;;;;;;3.80;1.50;;;;;;;17.40;47.89;100529.50;5045342;28;20203;-65
2024/01/22 09:16:32;;;;;;;2.40;1.03;;;;;;;17.43;47.69;100516.53;5040399;28;20213;-64
2024/01/22 09:18:57;;;;;;;2.23;1.20;;;;;;;17.45;47.97;100517.00;5058608;28;20170;-64
2024/01/22 09:21:23;;;;;;;1.70;0.90;;;;;;;17.44;47.63;100516.16;5038675;28;20209;-64
2024/01/22 09:23:49;;;;;;;3.00;1.33;;;;;;;17.41;47.77;100507.53;5041813;28;20182;-65
2024/01/22 09:26:14;;;;;;;2.93;1.33;;;;;;;17.47;47.50;100511.75;5057009;28;20468;-64
2024/01/22 09:28:40;;;;;;;1.93;1.27;;;;;;;17.47;47.51;100511.75;5057919;28;20606;-64
2024/01/22 09:31:05;;;;;;;2.47;1.40;;;;;;;17.43;47.96;100505.13;5057065;28;20163;-64
2024/01/22 09:33:30;;;;;;;5.87;1.70;;;;;;;17.40;47.80;100500.97;5054299;28;20167;-64
2024/01/22 09:35:56;;;;;;;3.30;1.10;;;;;;;17.44;48.19;100509.63;5053973;28;20182;-63
2024/01/22 09:38:22;;;;;;;2.57;1.33;;;;;;;17.46;47.57;100495.81;5074657;28;20181;-64
2024/01/22 09:40:48;;;;;;;2.53;1.20;;;;;;;17.45;47.98;100488.47;5068081;28;20522;-64
2024/01/22 09:43:14;;;;;;;2.47;1.23;;;;;;;17.43;47.96;100480.28;5039482;28;20500;-65
2024/01/22 09:45:39;;;;;;;2.57;1.20;;;;;;;17.43;47.44;100474.56;5055577;28;20928;-64
2024/01/22 09:48:05;;;;;;;3.60;1.37;;;;;;;17.49;47.48;100478.78;5075082;28;20237;-63
2024/01/22 09:50:31;;;;;;;2.30;1.27;;;;;;;17.48;47.54;100470.59;5085929;28;20183;-63
2024/01/22 09:53:01;;;;;;;5.00;1.40;;;;;;;17.47;47.66;100468.94;5071395;28;20477;-64
2024/01/22 09:55:27;;;;;;;2.50;1.20;;;;;;;17.50;47.58;100462.50;5074422;28;20420;-65
2024/01/22 09:57:53;;;;;;;2.97;1.50;;;;;;;17.46;47.47;100459.53;5042402;28;20490;-64
2024/01/22 10:00:20;;;;;;;2.77;1.07;;;;;;;17.46;47.65;100461.56;5036737;28;20168;-64
2024/01/22 10:02:46;;;;;;;2.17;1.53;;;;;;;17.53;47.15;100459.72;5045234;28;20448;-64
2024/01/22 10:05:11;;;;;;;6.03;1.27;;;;;;;17.47;47.34;100452.66;5039193;28;21081;-65
2024/01/22 10:07:36;;;;;;;2.20;1.10;;;;;;;17.47;48.04;100446.94;5054645;28;20732;-64
2024/01/22 10:10:02;;;;;;;4.13;1.57;;;;;;;17.47;47.90;100444.09;5072496;28;20182;-64
2024/01/22 10:12:27;;;;;;;2.20;1.33;;;;;;;17.47;47.42;100446.94;5069377;28;20198;-64
2024/01/22 10:14:53;;;;;;;1.83;1.10;;;;;;;17.43;47.85;100437.47;5055421;28;20198;-64
2024/01/22 10:17:20;;;;;;;1.90;1.10;;;;;;;17.47;47.80;100438.38;5047249;28;20175;-64
2024/01/22 10:19:49;;;;;;;4.57;1.30;;;;;;;17.50;47.72;100442.53;5052587;28;20868;-64
2024/01/22 10:22:19;;;;;;;3.40;1.50;;;;;;;17.50;47.53;100443.31;5038474;28;20535;-64
2024/01/22 10:24:44;;;;;;;2.83;1.20;;;;;;;17.49;47.60;100453.09;5055217;28;20979;-66
2024/01/22 10:27:14;;;;;;;1.90;1.13;;;;;;;17.56;47.87;100455.31;5073255;28;20479;-64
2024/01/22 10:29:39;;;;;;;3.47;1.30;;;;;;;17.46;48.11;100448.13;5073542;28;20206;-63
2024/01/22 10:32:05;;;;;;;2.97;1.13;;;;;;;17.45;47.94;100463.59;5070536;28;20440;-63
2024/01/22 10:34:31;;;;;;;2.07;1.00;;;;;;;17.51;47.69;100439.28;5055752;28;20182;-64
2024/01/22 10:37:07;;;;;;;2.37;1.30;;;;;;;17.51;47.89;100441.31;5069720;28;20205;-63
2024/01/22 10:39:33;;;;;;;3.27;1.50;;;;;;;17.48;48.06;100439.19;5057269;28;20546;-63
2024/01/22 10:42:19;;;;;;;2.77;1.30;;;;;;;17.54;47.83;100437.69;5057102;28;20495;-64
2024/01/22 10:44:47;;;;;;;2.73;1.40;;;;;;;17.52;47.09;100423.81;5054918;28;20441;-64
2024/01/22 10:47:16;;;;;;;3.80;1.40;;;;;;;17.48;47.96;100430.63;5055304;28;20449;-64
2024/01/22 10:49:45;;;;;;;2.73;1.03;;;;;;;17.49;47.93;100430.25;5045678;28;21046;-63
2024/01/22 10:52:11;;;;;;;2.83;1.33;;;;;;;17.48;47.82;100420.06;5046359;28;20416;-64
2024/01/22 10:54:37;;;;;;;2.20;1.30;;;;;;;17.53;47.64;100419.75;5070608;28;20424;-64
2024/01/22 10:57:04;;;;;;;3.50;1.33;;;;;;;17.50;47.89;100419.69;5037147;28;20181;-65
2024/01/22 10:59:39;;;;;;;2.60;1.33;;;;;;;17.47;47.83;100409.84;5056698;28;20182;-64
2024/01/22 11:02:09;;;;;;;3.17;1.40;;;;;;;17.47;47.91;100406.16;5051761;28;20425;-65
2024/01/22 11:04:43;;;;;;;2.90;1.20;;;;;;;17.50;47.74;100391.94;5035307;28;20439;-65
2024/01/22 11:07:09;;;;;;;3.57;1.37;;;;;;;17.49;48.01;100390.31;5072223;28;20494;-63
2024/01/22 11:09:36;;;;;;;2.13;1.23;;;;;;;17.50;48.29;100391.94;5089965;28;20448;-64
2024/01/22 11:12:11;;;;;;;1.87;1.17;;;;;;;17.55;47.47;100400.22;5056407;28;21000;-64
2024/01/22 11:14:38;;;;;;;2.37;1.17;;;;;;;17.50;48.31;100400.50;5063285;28;20516;-63
2024/01/22 11:17:08;;;;;;;3.03;1.13;;;;;;;17.49;47.76;100400.88;5039403;28;20479;-63
2024/01/22 11:19:34;;;;;;;2.30;1.20;;;;;;;17.52;48.07;100391.59;5080200;28;20436;-64